Time;durP1;ratioP1;P1;durP2;ratioP2;P2;SDS_P1;SDS_P2;PMS_P1;PMS_P2;Temp;Humidity;BMP_temperature;BMP_pressure;BME280_temperature;BME280_humidity;BME280_pressure;Samples;Min_cycle;Max_cycle;Signal;HPM_P1;HPM_P2
2021/09/23 00:00:54;;;;;;;11.83;5.37;;;14.70;85.90;;;;;;1875655;76;21104;-49
2021/09/23 00:06:09;;;;;;;9.88;4.95;;;14.50;85.40;;;;;;1875670;76;21062;-49
2021/09/23 00:08:39;;;;;;;7.97;4.97;;;14.40;85.70;;;;;;1875596;76;21038;-49
2021/09/23 00:11:08;;;;;;;5.72;4.22;;;14.40;85.90;;;;;;1875632;76;21096;-49
2021/09/23 00:13:38;;;;;;;7.97;4.62;;;14.30;85.90;;;;;;1875705;76;21035;-50
2021/09/23 00:16:07;;;;;;;8.58;5.08;;;14.20;85.80;;;;;;1875817;76;21031;-48
2021/09/23 00:18:37;;;;;;;9.73;4.40;;;14.20;85.80;;;;;;1875823;76;21070;-48
2021/09/23 00:21:06;;;;;;;9.10;5.20;;;14.10;85.80;;;;;;1876346;76;21124;-48
2021/09/23 00:23:36;;;;;;;5.03;4.17;;;14.00;85.90;;;;;;1876198;76;21023;-47
2021/09/23 00:26:05;;;;;;;4.47;4.08;;;14.00;86.00;;;;;;1876239;76;21031;-49
2021/09/23 00:28:35;;;;;;;6.58;3.95;;;13.90;86.10;;;;;;1876301;76;21105;-50
2021/09/23 00:31:05;;;;;;;5.55;3.42;;;13.80;86.20;;;;;;1876169;76;21035;-49
2021/09/23 00:33:34;;;;;;;9.30;4.90;;;13.80;86.40;;;;;;1876306;76;21034;-48
2021/09/23 00:36:03;;;;;;;6.28;3.90;;;13.70;86.50;;;;;;1876162;76;21089;-48
2021/09/23 00:38:33;;;;;;;7.28;3.72;;;13.70;86.60;;;;;;1876203;76;21082;-49
2021/09/23 00:41:02;;;;;;;6.95;4.47;;;13.70;86.60;;;;;;1876227;76;21156;-50
2021/09/23 00:43:31;;;;;;;6.28;4.37;;;13.70;86.60;;;;;;1876223;76;21047;-51
2021/09/23 00:46:01;;;;;;;4.67;4.15;;;13.70;86.60;;;;;;1876224;76;21035;-47
2021/09/23 00:48:30;;;;;;;9.25;4.00;;;13.70;86.90;;;;;;1876284;76;21039;-51
2021/09/23 00:51:00;;;;;;;6.80;3.62;;;13.80;87.00;;;;;;1876323;76;21027;-48
2021/09/23 00:53:29;;;;;;;8.20;4.00;;;13.90;87.00;;;;;;1876505;76;21070;-50
2021/09/23 00:55:59;;;;;;;9.48;4.30;;;14.00;87.10;;;;;;1849363;76;21027;-49
2021/09/23 00:58:31;;;;;;;6.03;3.60;;;14.00;87.20;;;;;;1876006;76;21526;-49
2021/09/23 01:01:01;;;;;;;5.67;4.08;;;14.10;87.00;;;;;;1876400;76;21101;-50
2021/09/23 01:03:31;;;;;;;6.45;3.95;;;14.20;86.90;;;;;;1876149;76;21093;-49
2021/09/23 01:06:02;;;;;;;6.55;4.28;;;14.20;86.90;;;;;;1875941;76;21082;-49
2021/09/23 01:08:32;;;;;;;6.00;3.98;;;14.20;86.90;;;;;;1876326;76;21031;-47
2021/09/23 01:11:02;;;;;;;5.62;4.00;;;14.20;86.90;;;;;;1876243;76;21034;-47
2021/09/23 01:13:33;;;;;;;8.30;3.83;;;14.20;86.70;;;;;;1875721;76;21093;-50
2021/09/23 01:16:05;;;;;;;6.33;4.78;;;14.20;86.70;;;;;;1875541;76;21011;-51
2021/09/23 01:18:47;;;;;;;7.35;4.92;;;14.30;86.80;;;;;;1873498;76;21058;-50
2021/09/23 01:21:17;;;;;;;5.50;4.78;;;14.30;86.70;;;;;;1876249;76;21094;-48
2021/09/23 01:23:47;;;;;;;5.70;4.83;;;14.30;86.60;;;;;;1876128;76;21164;-49
2021/09/23 01:26:26;;;;;;;9.10;4.60;;;14.30;86.70;;;;;;1876218;76;21105;-49
2021/09/23 01:28:52;;;;;;;7.35;4.72;;;14.30;86.90;;;;;;1875597;76;21141;-50
2021/09/23 01:31:22;;;;;;;8.18;4.25;;;14.30;86.70;;;;;;1876190;76;21089;-49
2021/09/23 01:33:52;;;;;;;7.50;4.15;;;14.30;86.60;;;;;;1876202;76;21039;-49
2021/09/23 01:36:22;;;;;;;9.23;4.62;;;14.30;86.40;;;;;;1876210;76;21043;-48
2021/09/23 01:38:52;;;;;;;10.48;4.70;;;14.30;86.20;;;;;;1876200;76;21030;-47
2021/09/23 01:41:22;;;;;;;8.43;4.53;;;14.20;86.10;;;;;;1876391;76;21133;-49
2021/09/23 01:43:53;;;;;;;3.77;3.45;;;14.20;86.60;;;;;;1876050;75;21257;-48
2021/09/23 01:46:22;;;;;;;6.40;5.25;;;14.20;86.90;;;;;;1876353;76;21051;-47
2021/09/23 01:49:02;;;;;;;7.55;4.83;;;14.30;87.00;;;;;;1864894;76;21112;-50
2021/09/23 01:51:32;;;;;;;5.58;4.17;;;14.30;87.10;;;;;;1876276;76;21101;-49
2021/09/23 01:54:01;;;;;;;8.30;4.58;;;14.30;86.90;;;;;;1876293;76;21051;-50
2021/09/23 01:56:30;;;;;;;7.67;4.40;;;14.30;86.90;;;;;;1876178;76;21039;-49
2021/09/23 01:59:01;;;;;;;5.08;4.30;;;14.30;86.90;;;;;;1876401;76;21555;-49
2021/09/23 02:01:31;;;;;;;7.45;4.58;;;14.30;87.10;;;;;;1876283;76;21039;-50
2021/09/23 02:04:00;;;;;;;5.67;4.33;;;14.30;87.20;;;;;;1876336;76;21027;-50
2021/09/23 02:06:34;;;;;;;5.57;4.53;;;14.40;87.20;;;;;;1875516;76;21062;-48
2021/09/23 02:09:04;;;;;;;5.10;4.37;;;14.40;87.40;;;;;;1876303;76;21214;-48
2021/09/23 02:11:35;;;;;;;10.43;4.78;;;14.40;87.60;;;;;;1876413;76;21511;-49
2021/09/23 02:14:05;;;;;;;6.05;4.62;;;14.40;87.60;;;;;;1876218;76;21078;-51
2021/09/23 02:16:35;;;;;;;10.05;4.58;;;14.40;87.60;;;;;;1876199;76;21035;-49
2021/09/23 02:19:06;;;;;;;7.87;5.28;;;14.40;87.20;;;;;;1866199;76;21054;-50
2021/09/23 02:21:36;;;;;;;6.08;5.47;;;14.40;86.90;;;;;;1875783;76;21120;-50
2021/09/23 02:24:05;;;;;;;7.40;4.60;;;14.40;86.90;;;;;;1875600;76;21102;-47
2021/09/23 02:26:35;;;;;;;10.95;5.00;;;14.30;86.40;;;;;;1875562;76;21038;-51
2021/09/23 02:29:04;;;;;;;7.17;5.12;;;14.30;86.40;;;;;;1875456;76;21073;-51
2021/09/23 02:31:34;;;;;;;6.28;4.90;;;14.20;86.60;;;;;;1875690;76;21039;-50
2021/09/23 02:34:04;;;;;;;8.00;4.95;;;14.20;86.40;;;;;;1875630;76;21148;-49
2021/09/23 02:36:33;;;;;;;8.48;5.12;;;14.20;86.30;;;;;;1875643;76;21077;-48
2021/09/23 02:39:02;;;;;;;10.20;5.28;;;14.10;86.40;;;;;;1875491;76;21034;-48
2021/09/23 02:41:32;;;;;;;10.13;6.40;;;14.10;86.60;;;;;;1875560;76;21022;-49
2021/09/23 02:44:02;;;;;;;12.55;6.10;;;14.10;86.70;;;;;;1875646;76;21120;-50
2021/09/23 02:46:36;;;;;;;7.85;5.85;;;14.10;86.80;;;;;;1875546;76;21092;-48
2021/09/23 02:49:02;;;;;;;8.25;6.12;;;14.10;86.80;;;;;;1874189;76;21034;-48
2021/09/23 02:51:32;;;;;;;9.78;6.10;;;14.10;86.90;;;;;;1875646;76;21090;-50
2021/09/23 02:54:01;;;;;;;7.62;5.90;;;14.10;86.90;;;;;;1875517;76;21054;-49
2021/09/23 02:56:31;;;;;;;6.80;5.62;;;14.10;86.90;;;;;;1875665;76;21046;-50
2021/09/23 02:59:01;;;;;;;10.20;5.83;;;14.10;87.20;;;;;;1875517;76;21011;-50
2021/09/23 03:01:30;;;;;;;9.80;6.33;;;14.10;88.30;;;;;;1875608;76;21097;-48
2021/09/23 03:04:00;;;;;;;11.85;7.45;;;14.10;87.80;;;;;;1875589;76;21035;-47
2021/09/23 03:06:29;;;;;;;13.05;9.88;;;14.20;87.70;;;;;;1875461;76;21046;-50
2021/09/23 03:08:59;;;;;;;12.25;8.78;;;14.20;87.70;;;;;;1875523;76;21105;-48
2021/09/23 03:11:30;;;;;;;10.88;8.30;;;14.20;87.90;;;;;;1875674;76;21041;-50
2021/09/23 03:14:00;;;;;;;12.10;7.83;;;14.20;87.90;;;;;;1875584;76;21019;-48
2021/09/23 03:16:29;;;;;;;19.27;8.83;;;14.20;88.00;;;;;;1875497;76;21054;-48
2021/09/23 03:18:58;;;;;;;10.95;8.35;;;14.20;88.30;;;;;;1875469;76;21092;-49
2021/09/23 03:21:28;;;;;;;11.10;8.00;;;14.20;88.30;;;;;;1875851;76;21081;-49
2021/09/23 03:23:58;;;;;;;15.93;8.00;;;14.30;88.40;;;;;;1876097;76;21030;-49
2021/09/23 03:26:27;;;;;;;9.58;6.28;;;14.30;88.50;;;;;;1876223;76;21050;-50
2021/09/23 03:28:56;;;;;;;9.30;7.20;;;14.30;88.60;;;;;;1876186;76;21106;-50
2021/09/23 03:31:26;;;;;;;9.58;6.58;;;14.30;88.10;;;;;;1876193;76;21109;-47
2021/09/23 03:33:56;;;;;;;9.98;5.78;;;14.30;88.10;;;;;;1876177;76;21156;-50
2021/09/23 03:36:25;;;;;;;8.93;5.12;;;14.30;88.30;;;;;;1876298;76;21062;-51
2021/09/23 03:38:55;;;;;;;13.20;6.25;;;14.30;88.40;;;;;;1876331;76;21108;-50
2021/09/23 03:41:25;;;;;;;8.60;6.97;;;14.30;88.40;;;;;;1876230;76;21167;-50
2021/09/23 03:43:54;;;;;;;7.25;5.42;;;14.30;88.60;;;;;;1876190;76;21167;-51
2021/09/23 03:46:24;;;;;;;7.90;6.03;;;14.30;88.70;;;;;;1876183;76;21135;-51
2021/09/23 03:48:53;;;;;;;10.25;6.45;;;14.30;88.80;;;;;;1876248;76;21081;-50
2021/09/23 03:51:22;;;;;;;10.72;5.97;;;14.40;88.80;;;;;;1876293;76;21042;-49
2021/09/23 03:53:52;;;;;;;9.40;6.53;;;14.40;88.80;;;;;;1876308;76;21489;-51
2021/09/23 03:56:21;;;;;;;7.72;5.85;;;14.40;88.60;;;;;;1876199;76;21042;-48
2021/09/23 03:58:50;;;;;;;7.85;5.95;;;14.40;88.60;;;;;;1876269;76;21034;-50
2021/09/23 04:01:20;;;;;;;7.37;5.33;;;14.40;88.60;;;;;;1876374;76;21023;-48
2021/09/23 04:03:50;;;;;;;11.48;7.53;;;14.40;88.60;;;;;;1876434;76;21046;-50
2021/09/23 04:06:19;;;;;;;11.10;6.10;;;14.40;88.60;;;;;;1876327;76;21042;-50
2021/09/23 04:08:49;;;;;;;7.95;5.62;;;14.40;88.70;;;;;;1876375;76;21050;-49
2021/09/23 04:11:19;;;;;;;6.67;5.55;;;14.50;88.70;;;;;;1876189;76;21523;-50
2021/09/23 04:13:49;;;;;;;9.53;6.87;;;14.50;89.10;;;;;;1876259;76;21031;-48
2021/09/23 04:16:19;;;;;;;9.50;5.67;;;14.50;88.60;;;;;;1876266;76;21111;-49
2021/09/23 04:18:48;;;;;;;8.40;6.00;;;14.50;88.60;;;;;;1876281;76;21042;-51
2021/09/23 04:21:17;;;;;;;11.90;6.62;;;14.50;88.70;;;;;;1876270;76;21136;-50
2021/09/23 04:23:47;;;;;;;9.70;6.58;;;14.50;88.60;;;;;;1876210;76;21108;-51
2021/09/23 04:26:16;;;;;;;25.15;7.72;;;14.50;88.60;;;;;;1876313;76;21042;-51
2021/09/23 04:28:46;;;;;;;16.62;7.50;;;14.40;88.10;;;;;;1876250;76;21045;-47
2021/09/23 04:31:16;;;;;;;18.40;7.45;;;14.40;88.00;;;;;;1876305;76;21539;-49
2021/09/23 04:33:46;;;;;;;13.22;6.08;;;14.30;88.10;;;;;;1876254;76;21100;-48
2021/09/23 04:36:16;;;;;;;11.40;6.17;;;14.30;88.00;;;;;;1876231;76;21007;-48
2021/09/23 04:38:45;;;;;;;10.32;6.92;;;14.20;87.80;;;;;;1876263;76;21092;-50
2021/09/23 04:41:17;;;;;;;11.57;7.42;;;14.20;88.00;;;;;;1876053;75;21556;-50
2021/09/23 04:43:51;;;;;;;10.90;7.30;;;14.10;88.10;;;;;;1876275;76;21107;-51
2021/09/23 04:46:21;;;;;;;11.60;7.90;;;14.10;88.10;;;;;;1875799;76;21057;-50
2021/09/23 04:48:50;;;;;;;10.45;7.47;;;14.00;88.00;;;;;;1876158;76;21042;-49
2021/09/23 04:51:22;;;;;;;10.53;7.35;;;14.00;88.00;;;;;;1876278;76;21058;-50
2021/09/23 04:53:52;;;;;;;20.88;7.47;;;14.00;88.00;;;;;;1876313;76;21100;-48
2021/09/23 04:56:21;;;;;;;11.20;7.00;;;13.90;88.10;;;;;;1876286;76;21038;-51
2021/09/23 04:58:51;;;;;;;12.05;8.10;;;14.00;88.80;;;;;;1876142;76;21033;-50
2021/09/23 05:01:22;;;;;;;13.40;7.25;;;13.90;88.30;;;;;;1875546;76;21018;-50
2021/09/23 05:03:51;;;;;;;11.05;7.83;;;13.90;88.20;;;;;;1849471;76;21038;-47
2021/09/23 05:06:21;;;;;;;11.35;8.08;;;14.00;88.60;;;;;;1876233;76;21527;-49
2021/09/23 05:08:52;;;;;;;13.08;7.08;;;14.10;88.30;;;;;;1875757;76;21112;-50
2021/09/23 05:11:24;;;;;;;11.80;9.08;;;14.10;88.30;;;;;;1876133;76;21050;-47
2021/09/23 05:13:53;;;;;;;13.90;8.48;;;14.20;88.10;;;;;;1876248;76;21120;-47
2021/09/23 05:16:24;;;;;;;12.88;9.48;;;14.30;87.90;;;;;;1876305;76;21006;-47
2021/09/23 05:18:53;;;;;;;18.45;10.32;;;14.20;87.80;;;;;;1876151;76;21103;-50
2021/09/23 05:21:23;;;;;;;12.90;8.83;;;14.30;87.90;;;;;;1876149;75;21085;-49
2021/09/23 05:23:52;;;;;;;11.83;9.30;;;14.20;87.80;;;;;;1875494;76;21042;-47
2021/09/23 05:26:21;;;;;;;10.20;7.83;;;14.20;87.90;;;;;;1875574;76;21030;-48
2021/09/23 05:28:52;;;;;;;10.98;9.30;;;14.20;87.70;;;;;;1875523;76;21457;-48
2021/09/23 05:31:21;;;;;;;13.95;10.18;;;14.20;88.00;;;;;;1875608;76;21042;-50
2021/09/23 05:33:50;;;;;;;11.45;9.28;;;14.30;88.10;;;;;;1875517;76;21015;-49
2021/09/23 05:36:20;;;;;;;14.03;9.38;;;14.30;88.20;;;;;;1875461;76;21042;-50
2021/09/23 05:38:49;;;;;;;13.50;9.48;;;14.30;87.90;;;;;;1875517;76;21015;-48
2021/09/23 05:41:19;;;;;;;20.57;11.25;;;14.30;87.90;;;;;;1875597;76;21054;-49
2021/09/23 05:43:48;;;;;;;16.02;11.45;;;14.40;87.70;;;;;;1875423;76;21108;-47
2021/09/23 05:46:18;;;;;;;16.30;10.18;;;14.40;87.80;;;;;;1875390;76;21110;-50
2021/09/23 05:48:48;;;;;;;13.65;9.15;;;14.50;87.80;;;;;;1875351;76;21034;-49
2021/09/23 05:51:17;;;;;;;12.93;9.33;;;14.50;87.20;;;;;;1875292;76;21030;-50
2021/09/23 05:53:47;;;;;;;16.57;9.98;;;14.50;87.20;;;;;;1875510;76;21100;-50
2021/09/23 05:56:17;;;;;;;11.83;9.68;;;14.50;86.80;;;;;;1875387;76;21046;-48
2021/09/23 05:58:46;;;;;;;14.58;10.08;;;14.50;86.60;;;;;;1875410;76;21092;-49
2021/09/23 06:01:15;;;;;;;14.15;9.10;;;14.50;86.60;;;;;;1875428;76;21159;-49
2021/09/23 06:03:45;;;;;;;15.78;9.98;;;14.60;86.80;;;;;;1875328;76;21144;-47
2021/09/23 06:06:14;;;;;;;13.88;10.58;;;14.60;86.70;;;;;;1875531;76;21042;-49
2021/09/23 06:08:44;;;;;;;12.28;10.45;;;14.70;86.30;;;;;;1875559;76;21096;-50
2021/09/23 06:11:13;;;;;;;18.65;10.23;;;14.70;86.30;;;;;;1875378;76;21034;-49
2021/09/23 06:13:43;;;;;;;15.40;10.45;;;14.70;85.90;;;;;;1875472;76;21035;-48
2021/09/23 06:16:13;;;;;;;10.72;8.93;;;14.70;86.00;;;;;;1875328;76;21104;-51
2021/09/23 06:18:46;;;;;;;13.20;9.38;;;14.70;86.30;;;;;;1875365;76;21496;-49
2021/09/23 06:21:15;;;;;;;12.80;10.13;;;14.80;86.40;;;;;;1875212;76;21015;-50
2021/09/23 06:23:44;;;;;;;14.98;9.83;;;14.90;86.30;;;;;;1875448;75;21070;-48
2021/09/23 06:26:13;;;;;;;16.62;9.68;;;15.00;86.30;;;;;;1875386;76;21541;-50
2021/09/23 06:28:43;;;;;;;15.25;9.78;;;15.00;85.90;;;;;;1875462;76;21057;-50
2021/09/23 06:31:13;;;;;;;18.48;10.20;;;15.10;85.70;;;;;;1875447;76;21062;-50
2021/09/23 06:33:44;;;;;;;13.43;10.32;;;15.10;85.50;;;;;;1875499;76;21096;-48
2021/09/23 06:36:13;;;;;;;12.20;10.15;;;15.10;85.30;;;;;;1875320;76;21003;-51
2021/09/23 06:38:43;;;;;;;11.53;10.38;;;15.10;84.80;;;;;;1875371;76;21046;-49
2021/09/23 06:41:12;;;;;;;13.83;10.60;;;15.20;84.70;;;;;;1875367;76;21030;-50
2021/09/23 06:43:42;;;;;;;11.83;10.32;;;15.20;84.60;;;;;;1875499;76;21026;-49
2021/09/23 06:46:13;;;;;;;15.00;10.88;;;15.20;84.10;;;;;;1875397;76;21084;-49
2021/09/23 06:48:42;;;;;;;14.98;10.23;;;15.30;84.30;;;;;;1875531;76;21004;-50
2021/09/23 06:51:12;;;;;;;15.03;11.00;;;15.30;83.90;;;;;;1875521;76;21055;-49
2021/09/23 06:53:41;;;;;;;15.55;11.18;;;15.30;83.90;;;;;;1875498;76;21046;-49
2021/09/23 06:56:11;;;;;;;13.10;9.98;;;15.40;83.90;;;;;;1875379;76;21038;-48
2021/09/23 06:58:40;;;;;;;13.10;9.43;;;15.40;83.70;;;;;;1875392;76;21042;-50
2021/09/23 07:01:27;;;;;;;15.10;10.68;;;15.40;83.50;;;;;;1875378;76;21046;-49
2021/09/23 07:04:14;;;;;;;12.78;10.90;;;15.50;83.00;;;;;;1875349;76;21051;-49
2021/09/23 07:07:00;;;;;;;15.38;10.18;;;15.60;82.30;;;;;;1874051;76;21108;-53
2021/09/23 07:09:35;;;;;;;12.45;10.65;;;15.60;82.70;;;;;;1873306;76;21056;-49
2021/09/23 07:12:06;;;;;;;16.87;11.08;;;15.60;82.20;;;;;;1875226;76;21042;-49
2021/09/23 07:14:35;;;;;;;15.43;10.88;;;15.60;82.40;;;;;;1875387;76;21108;-47
2021/09/23 07:17:05;;;;;;;11.05;9.78;;;15.70;82.20;;;;;;1875309;76;21015;-50
2021/09/23 07:19:35;;;;;;;10.43;8.70;;;15.70;82.00;;;;;;1875478;76;21039;-46
2021/09/23 07:22:05;;;;;;;15.68;12.37;;;15.80;82.40;;;;;;1875390;76;21027;-47
2021/09/23 07:24:35;;;;;;;16.93;12.47;;;15.90;82.40;;;;;;1875523;75;21121;-50
2021/09/23 07:27:05;;;;;;;19.90;13.55;;;15.90;81.50;;;;;;1875380;76;21093;-49
2021/09/23 07:29:34;;;;;;;19.17;13.78;;;15.90;80.90;;;;;;1875512;76;21031;-50
2021/09/23 07:32:04;;;;;;;17.35;12.50;;;15.90;81.10;;;;;;1875318;76;21039;-48
2021/09/23 07:34:34;;;;;;;17.12;13.40;;;15.90;81.50;;;;;;1874645;76;21639;-43
2021/09/23 07:37:04;;;;;;;14.07;12.68;;;15.90;81.70;;;;;;1874567;76;21078;-46
2021/09/23 07:39:35;;;;;;;18.32;14.38;;;15.90;81.40;;;;;;1874863;76;21070;-44
2021/09/23 07:42:05;;;;;;;21.05;11.53;;;16.00;81.50;;;;;;1874731;76;21011;-48
2021/09/23 07:44:36;;;;;;;17.50;12.65;;;16.00;81.80;;;;;;1874701;76;21117;-48
2021/09/23 07:47:05;;;;;;;18.90;13.65;;;16.00;82.70;;;;;;1874821;76;21074;-49
2021/09/23 07:49:35;;;;;;;17.27;12.70;;;16.10;82.50;;;;;;1874597;76;21148;-46
2021/09/23 07:52:06;;;;;;;19.62;13.22;;;16.10;81.10;;;;;;1874877;76;21097;-46
2021/09/23 07:54:35;;;;;;;28.85;15.90;;;16.00;80.80;;;;;;1874742;76;21106;-48
2021/09/23 07:57:05;;;;;;;20.02;13.38;;;16.00;81.20;;;;;;1874810;76;21082;-45
2021/09/23 07:59:34;;;;;;;18.37;9.75;;;15.90;80.00;;;;;;1874940;76;21105;-49
2021/09/23 08:02:04;;;;;;;19.60;11.57;;;15.90;81.20;;;;;;1874854;76;21093;-46
2021/09/23 08:04:34;;;;;;;18.15;10.32;;;15.90;81.80;;;;;;1874952;76;21098;-45
2021/09/23 08:07:04;;;;;;;18.17;12.35;;;16.00;82.20;;;;;;1874881;76;21132;-46
2021/09/23 08:09:34;;;;;;;22.07;11.83;;;16.10;81.90;;;;;;1874734;76;21007;-50
2021/09/23 08:12:03;;;;;;;23.05;13.05;;;16.10;82.00;;;;;;1874824;76;21098;-46
2021/09/23 08:14:33;;;;;;;16.85;12.68;;;16.10;82.30;;;;;;1874699;76;21148;-45
2021/09/23 08:17:07;;;;;;;19.55;13.93;;;16.20;82.40;;;;;;1872403;76;21081;-46
2021/09/23 08:19:41;;;;;;;30.43;12.07;;;16.30;81.90;;;;;;1873313;76;21058;-45
2021/09/23 08:22:24;;;;;;;20.10;12.55;;;16.30;82.20;;;;;;1874425;76;21050;-45
2021/09/23 08:24:54;;;;;;;17.55;13.62;;;16.40;82.10;;;;;;1874678;76;21063;-46
2021/09/23 08:27:23;;;;;;;24.23;14.90;;;16.40;81.30;;;;;;1874513;76;21329;-46
2021/09/23 08:29:53;;;;;;;19.30;14.00;;;16.30;80.40;;;;;;1874850;76;21156;-46
2021/09/23 08:32:23;;;;;;;23.47;12.33;;;16.30;79.60;;;;;;1874708;76;21114;-45
2021/09/23 08:34:53;;;;;;;21.95;12.60;;;16.20;80.50;;;;;;1874761;76;21154;-48
2021/09/23 08:37:23;;;;;;;23.47;15.30;;;16.20;81.00;;;;;;1874937;76;21039;-46
2021/09/23 08:39:53;;;;;;;30.25;14.35;;;16.30;81.10;;;;;;1874872;76;21121;-47
2021/09/23 08:42:23;;;;;;;18.07;13.95;;;16.30;80.60;;;;;;1840704;76;21055;-47
2021/09/23 08:44:53;;;;;;;24.90;12.53;;;16.30;80.50;;;;;;1874884;76;21039;-49
2021/09/23 08:47:23;;;;;;;28.05;12.10;;;16.30;80.10;;;;;;1874791;76;21105;-46
2021/09/23 08:49:52;;;;;;;20.23;12.33;;;16.30;80.90;;;;;;1874761;76;21042;-48
2021/09/23 08:52:23;;;;;;;27.17;12.20;;;16.30;81.10;;;;;;1874720;76;21124;-47
2021/09/23 08:54:52;;;;;;;25.82;12.50;;;16.30;80.70;;;;;;1875042;76;21026;-46
2021/09/23 08:57:22;;;;;;;27.40;12.07;;;16.30;80.70;;;;;;1874602;76;21109;-49
2021/09/23 08:59:52;;;;;;;78.07;18.87;;;16.40;80.30;;;;;;1874847;76;21584;-49
2021/09/23 09:02:26;;;;;;;183.97;33.33;;;16.30;80.70;;;;;;1874862;76;21026;-46
2021/09/23 09:05:07;;;;;;;17.42;12.23;;;16.30;80.50;;;;;;1725423;83;21193;-49
2021/09/23 09:07:41;;;;;;;191.45;32.85;;;16.40;79.70;;;;;;1871922;76;21050;-49
2021/09/23 09:10:18;;;;;;;266.73;45.80;;;16.40;79.90;;;;;;1868560;76;21122;-48
2021/09/23 09:12:48;;;;;;;286.70;47.33;;;16.40;80.20;;;;;;1874703;76;21337;-49
2021/09/23 09:15:21;;;;;;;18.00;12.80;;;16.50;80.40;;;;;;1874690;76;21047;-46
2021/09/23 09:17:50;;;;;;;159.85;31.20;;;16.60;80.20;;;;;;1874502;76;21090;-46
2021/09/23 09:20:19;;;;;;;52.78;17.70;;;16.60;79.70;;;;;;1874998;76;21611;-48
2021/09/23 09:22:50;;;;;;;130.80;25.25;;;16.60;78.70;;;;;;1874794;76;21157;-47
2021/09/23 09:25:19;;;;;;;106.95;23.67;;;16.60;79.20;;;;;;1874581;75;21164;-46
2021/09/23 09:27:49;;;;;;;155.48;29.92;;;16.70;79.50;;;;;;1874664;76;21074;-46
2021/09/23 09:30:23;;;;;;;103.20;21.02;;;16.70;79.50;;;;;;1874734;76;21658;-48
2021/09/23 09:33:01;;;;;;;58.58;17.30;;;16.80;79.70;;;;;;1874621;76;21082;-45
2021/09/23 09:35:30;;;;;;;74.75;17.95;;;16.90;79.50;;;;;;1869443;76;21176;-47
2021/09/23 09:38:02;;;;;;;43.33;15.93;;;17.10;79.30;;;;;;1874778;76;21098;-45
2021/09/23 09:40:35;;;;;;;44.58;14.15;;;17.10;78.50;;;;;;1874760;76;21642;-46
2021/09/23 09:43:07;;;;;;;54.80;16.90;;;17.10;78.50;;;;;;1874803;76;21485;-49
2021/09/23 09:45:38;;;;;;;174.42;29.70;;;17.10;78.60;;;;;;1874971;76;21059;-47
2021/09/23 09:48:08;;;;;;;13.88;10.28;;;17.10;78.10;;;;;;1874874;76;21015;-48
2021/09/23 09:50:42;;;;;;;12.68;10.60;;;17.10;77.80;;;;;;1874878;76;21051;-47
2021/09/23 09:53:14;;;;;;;210.32;37.85;;;17.10;76.70;;;;;;1874765;76;21011;-48
2021/09/23 09:55:45;;;;;;;91.28;20.68;;;17.00;77.50;;;;;;1873943;76;21054;-51
2021/09/23 09:58:19;;;;;;;382.90;62.33;;;17.00;77.70;;;;;;1874386;76;21156;-48
2021/09/23 10:00:48;;;;;;;394.32;66.00;;;17.00;78.10;;;;;;1874548;76;21121;-51
2021/09/23 10:03:19;;;;;;;574.38;110.57;;;17.10;78.30;;;;;;1874692;76;21093;-49
2021/09/23 10:05:50;;;;;;;578.92;109.15;;;17.30;78.90;;;;;;1874857;76;21082;-49
2021/09/23 10:08:21;;;;;;;443.45;79.58;;;17.30;78.30;;;;;;1874271;76;21042;-48
2021/09/23 10:10:50;;;;;;;160.37;30.32;;;17.40;77.60;;;;;;1874606;76;21011;-49
2021/09/23 10:13:23;;;;;;;633.12;109.83;;;17.40;77.30;;;;;;1874782;76;21046;-48
2021/09/23 10:15:53;;;;;;;261.15;51.70;;;17.40;77.20;;;;;;1874719;76;21606;-48
2021/09/23 10:18:22;;;;;;;13.83;8.00;;;17.40;76.20;;;;;;1874749;76;21030;-49
2021/09/23 10:20:53;;;;;;;336.02;61.58;;;17.40;75.90;;;;;;1874783;76;21031;-47
2021/09/23 10:23:27;;;;;;;265.62;43.02;;;17.40;76.40;;;;;;1874959;76;21105;-48
2021/09/23 10:25:59;;;;;;;122.80;24.37;;;17.40;76.70;;;;;;1874511;76;21138;-49
2021/09/23 10:28:29;;;;;;;164.32;31.33;;;17.50;76.20;;;;;;1874823;76;21110;-47
2021/09/23 10:30:58;;;;;;;335.63;58.65;;;17.40;75.90;;;;;;1874799;76;21042;-52
2021/09/23 10:33:28;;;;;;;329.27;54.18;;;17.50;76.40;;;;;;1874809;76;21122;-50
2021/09/23 10:35:58;;;;;;;442.27;74.65;;;17.60;76.70;;;;;;1874798;76;21031;-48
2021/09/23 10:38:29;;;;;;;323.30;56.75;;;17.70;76.70;;;;;;1872496;76;21261;-48
2021/09/23 10:41:00;;;;;;;164.70;33.20;;;17.70;76.70;;;;;;1875526;76;21160;-49
2021/09/23 10:43:32;;;;;;;17.90;9.20;;;17.80;76.40;;;;;;1875369;76;21034;-51
2021/09/23 10:46:03;;;;;;;15.38;9.45;;;17.90;76.00;;;;;;1875281;76;21091;-48
2021/09/23 10:48:41;;;;;;;15.98;8.20;;;17.90;75.40;;;;;;1873240;76;21127;-49
2021/09/23 10:51:12;;;;;;;16.20;8.75;;;17.90;75.10;;;;;;1875386;76;21011;-50
2021/09/23 10:53:42;;;;;;;56.28;14.35;;;17.90;74.60;;;;;;1875487;76;21031;-48
2021/09/23 10:56:13;;;;;;;24.55;9.70;;;17.90;74.50;;;;;;1874643;76;21139;-50
2021/09/23 10:58:45;;;;;;;20.10;8.38;;;17.90;74.60;;;;;;1875431;76;21035;-50
2021/09/23 11:01:29;;;;;;;42.33;11.48;;;17.80;74.60;;;;;;1875440;76;21063;-49
2021/09/23 11:04:01;;;;;;;28.98;9.73;;;17.80;74.70;;;;;;1875683;76;21577;-49
2021/09/23 11:06:40;;;;;;;33.98;9.18;;;17.90;74.60;;;;;;1875155;76;21058;-48
2021/09/23 11:09:22;;;;;;;26.93;7.97;;;17.90;74.50;;;;;;1875545;76;21144;-48
2021/09/23 11:12:03;;;;;;;25.77;10.45;;;17.90;74.30;;;;;;1875090;76;21141;-49
2021/09/23 11:14:30;;;;;;;50.60;13.80;;;17.90;73.90;;;;;;1873526;76;21125;-47
2021/09/23 11:17:02;;;;;;;53.17;15.70;;;17.90;74.10;;;;;;1875387;76;21108;-48
2021/09/23 11:19:33;;;;;;;56.98;15.18;;;18.00;74.20;;;;;;1875451;76;21031;-48
2021/09/23 11:22:03;;;;;;;52.80;12.25;;;18.00;74.00;;;;;;1875391;76;21035;-49
2021/09/23 11:24:33;;;;;;;23.77;8.78;;;18.10;73.90;;;;;;1875364;76;21034;-47
2021/09/23 11:27:04;;;;;;;17.07;8.48;;;18.10;73.00;;;;;;1875509;76;21067;-49
2021/09/23 11:29:35;;;;;;;10.32;6.15;;;18.10;73.30;;;;;;1875177;76;21222;-50
2021/09/23 11:32:04;;;;;;;16.57;8.20;;;18.10;73.20;;;;;;1875397;76;21035;-47
2021/09/23 11:34:36;;;;;;;29.77;10.08;;;18.10;71.90;;;;;;1875361;76;21517;-49
2021/09/23 11:37:08;;;;;;;35.28;10.80;;;18.00;72.20;;;;;;1875361;76;21038;-49
2021/09/23 11:39:40;;;;;;;117.75;26.20;;;18.00;72.50;;;;;;1866423;76;21055;-49
2021/09/23 11:42:15;;;;;;;91.53;20.15;;;17.90;72.80;;;;;;1874272;76;21074;-50
2021/09/23 11:44:46;;;;;;;27.07;10.32;;;17.90;73.50;;;;;;1875511;76;21085;-49
2021/09/23 11:47:16;;;;;;;73.33;17.17;;;17.90;73.10;;;;;;1875516;76;21085;-51
2021/09/23 11:49:52;;;;;;;13.05;7.80;;;17.90;73.20;;;;;;1875491;76;21015;-47
2021/09/23 11:52:35;;;;;;;21.15;9.15;;;17.90;72.70;;;;;;1875505;76;21105;-50
2021/09/23 11:55:07;;;;;;;63.20;16.23;;;17.90;72.80;;;;;;1875820;76;21027;-47
2021/09/23 11:57:36;;;;;;;10.35;6.37;;;17.90;73.30;;;;;;1875477;76;21023;-47
2021/09/23 12:00:07;;;;;;;55.90;13.25;;;17.90;72.90;;;;;;1875521;76;21085;-50
2021/09/23 12:02:38;;;;;;;21.07;8.75;;;17.90;72.50;;;;;;1868190;76;21068;-49
2021/09/23 12:05:09;;;;;;;13.98;7.58;;;17.90;71.70;;;;;;1875639;76;21067;-49
2021/09/23 12:07:46;;;;;;;56.15;14.23;;;17.80;72.50;;;;;;1875480;76;21113;-48
2021/09/23 12:10:17;;;;;;;49.20;12.47;;;17.80;72.80;;;;;;1875518;76;21038;-51
2021/09/23 12:12:58;;;;;;;48.28;10.90;;;17.80;73.30;;;;;;1874001;76;21114;-48
2021/09/23 12:15:31;;;;;;;63.65;12.20;;;17.80;73.70;;;;;;1875504;76;21039;-47
2021/09/23 12:18:03;;;;;;;14.68;6.55;;;17.80;73.90;;;;;;1875558;76;21055;-50
2021/09/23 12:20:43;;;;;;;23.83;7.83;;;17.90;73.80;;;;;;1875471;76;21116;-48
2021/09/23 12:23:27;;;;;;;18.32;8.95;;;17.90;73.10;;;;;;1875414;76;21104;-50
2021/09/23 12:26:22;;;;;;;11.55;7.28;;;17.90;73.00;;;;;;1875163;75;21074;-50
2021/09/23 12:28:56;;;;;;;24.77;8.80;;;17.80;73.30;;;;;;1875487;76;21033;-50
2021/09/23 12:31:46;;;;;;;25.70;8.38;;;17.80;73.40;;;;;;1875705;76;21156;-47
2021/09/23 12:34:22;;;;;;;25.37;7.92;;;17.80;73.80;;;;;;1873404;76;21058;-49
2021/09/23 12:37:00;;;;;;;33.18;8.83;;;17.90;74.10;;;;;;1875525;76;21446;-47
2021/09/23 12:39:45;;;;;;;30.50;9.38;;;18.00;74.40;;;;;;1875124;76;21152;-48
2021/09/23 12:42:19;;;;;;;16.52;7.83;;;18.00;74.00;;;;;;1875603;76;21117;-48
2021/09/23 12:44:57;;;;;;;11.85;8.33;;;18.10;73.80;;;;;;1875417;76;21437;-47
2021/09/23 12:47:30;;;;;;;32.10;9.48;;;18.20;74.00;;;;;;1874968;76;21116;-48
2021/09/23 12:50:03;;;;;;;9.25;8.20;;;18.30;73.90;;;;;;1875669;76;21449;-48
2021/09/23 12:52:38;;;;;;;9.70;6.90;;;18.40;72.70;;;;;;1875453;76;21200;-49
2021/09/23 12:55:17;;;;;;;14.55;7.25;;;18.50;70.80;;;;;;1875196;76;21062;-50
2021/09/23 12:57:52;;;;;;;31.52;9.18;;;18.40;71.30;;;;;;1874614;76;21097;-50